Time;durP1;ratioP1;P1;durP2;ratioP2;P2;SDS_P1;SDS_P2;PMS_P1;PMS_P2;Temp;Humidity;BMP_temperature;BMP_pressure;BME280_temperature;BME280_humidity;BME280_pressure;Samples;Min_cycle;Max_cycle;Signal;HPM_P1;HPM_P2
2022/11/25 00:00:20;;;;;;;14.35;6.60;;;3.60;83.20;;;;;;5032182;28;20041;-62
2022/11/25 00:02:45;;;;;;;33.15;5.90;;;3.60;83.30;;;;;;5033409;28;20049;-61
2022/11/25 00:05:11;;;;;;;17.20;6.38;;;3.60;84.40;;;;;;5034869;28;20041;-62
2022/11/25 00:07:37;;;;;;;28.83;7.53;;;3.50;83.60;;;;;;5038268;28;20470;-62
2022/11/25 00:10:04;;;;;;;34.40;7.75;;;3.50;83.70;;;;;;5038536;28;20044;-61
2022/11/25 00:12:30;;;;;;;36.75;8.20;;;3.50;84.00;;;;;;5035496;28;20469;-62
2022/11/25 00:14:56;;;;;;;30.88;7.45;;;3.50;84.20;;;;;;5037927;28;20120;-62
2022/11/25 00:17:21;;;;;;;20.98;6.88;;;3.50;84.30;;;;;;5038228;28;20341;-62
2022/11/25 00:19:47;;;;;;;16.80;7.25;;;3.50;84.20;;;;;;5037034;28;20037;-61
2022/11/25 00:22:14;;;;;;;22.05;6.95;;;3.50;84.20;;;;;;5033668;28;20041;-61
2022/11/25 00:24:39;;;;;;;10.20;6.30;;;3.50;84.20;;;;;;5036558;28;20033;-62
2022/11/25 00:27:05;;;;;;;9.85;6.35;;;3.50;84.20;;;;;;5036631;28;20447;-61
2022/11/25 00:29:31;;;;;;;8.63;5.82;;;3.50;84.40;;;;;;5031778;28;20459;-62
2022/11/25 00:31:56;;;;;;;10.30;5.85;;;3.50;84.50;;;;;;5035235;28;20032;-62
2022/11/25 00:34:22;;;;;;;7.80;5.53;;;3.60;84.70;;;;;;5031474;28;20572;-62
2022/11/25 00:36:47;;;;;;;10.50;5.88;;;3.60;84.80;;;;;;5031005;28;20117;-61
2022/11/25 00:39:16;;;;;;;10.50;6.80;;;3.60;84.80;;;;;;5032724;28;20378;-60
2022/11/25 00:44:35;;;;;;;;;;;3.70;84.70;;;;;;5034792;28;20440;-62
2022/11/25 00:47:03;;;;;;;13.73;7.33;;;3.70;85.30;;;;;;5033775;28;19917;-62
2022/11/25 00:49:28;;;;;;;13.32;7.50;;;3.70;84.30;;;;;;5034550;28;20037;-60
2022/11/25 00:51:54;;;;;;;14.82;7.85;;;3.70;84.20;;;;;;5037559;28;20272;-60
2022/11/25 00:54:20;;;;;;;12.55;7.63;;;3.70;84.30;;;;;;5037339;28;20124;-61
2022/11/25 00:56:46;;;;;;;12.40;7.50;;;3.70;84.20;;;;;;5037257;28;20540;-61
2022/11/25 00:59:11;;;;;;;10.90;7.28;;;3.70;84.20;;;;;;5038005;28;20039;-61
2022/11/25 01:01:37;;;;;;;12.35;7.55;;;3.70;84.20;;;;;;5036443;28;20097;-61
2022/11/25 01:04:05;;;;;;;14.48;7.60;;;3.70;84.00;;;;;;5033289;28;20044;-61
2022/11/25 01:06:30;;;;;;;13.68;7.63;;;3.80;84.10;;;;;;5029746;28;20743;-62
2022/11/25 01:08:56;;;;;;;13.20;7.97;;;3.80;84.00;;;;;;5033752;28;20041;-61
2022/11/25 01:11:23;;;;;;;14.05;7.70;;;3.80;84.00;;;;;;5032429;28;20095;-61
2022/11/25 01:13:49;;;;;;;12.93;7.90;;;3.80;83.90;;;;;;5032991;28;20079;-60
2022/11/25 01:16:17;;;;;;;13.63;5.05;;;3.80;83.80;;;;;;5033749;28;20060;-62
2022/11/25 01:18:43;;;;;;;8.68;4.65;;;3.80;83.60;;;;;;5032430;28;20041;-62
2022/11/25 01:21:31;;;;;;;8.77;4.35;;;3.80;83.50;;;;;;5031657;28;20131;-62
2022/11/25 01:24:00;;;;;;;9.02;4.15;;;3.70;84.00;;;;;;5034891;28;20041;-62
2022/11/25 01:26:26;;;;;;;14.90;4.38;;;3.70;83.90;;;;;;5033907;28;20499;-62
2022/11/25 01:28:54;;;;;;;16.20;4.45;;;3.60;84.10;;;;;;5032564;28;20032;-62
2022/11/25 01:31:22;;;;;;;28.85;5.82;;;3.60;84.40;;;;;;5033219;28;20573;-61
2022/11/25 01:33:52;;;;;;;29.35;4.68;;;3.50;84.60;;;;;;5033574;28;20533;-61
2022/11/25 01:36:18;;;;;;;24.02;4.32;;;3.50;84.90;;;;;;5032883;28;20043;-61
2022/11/25 01:38:44;;;;;;;32.30;5.20;;;3.50;84.90;;;;;;5033721;28;20479;-62
2022/11/25 01:41:13;;;;;;;35.78;5.25;;;3.50;85.20;;;;;;5034263;28;20120;-61
2022/11/25 01:43:39;;;;;;;21.00;5.57;;;3.50;85.40;;;;;;5032838;28;20037;-62
2022/11/25 01:46:24;;;;;;;17.17;5.15;;;3.50;85.40;;;;;;5033697;28;20037;-61
2022/11/25 01:48:58;;;;;;;31.05;5.38;;;3.50;86.20;;;;;;5032259;28;20557;-61
2022/11/25 01:51:33;;;;;;;8.07;3.42;;;3.50;86.00;;;;;;5033858;28;20033;-61
2022/11/25 01:54:04;;;;;;;12.07;4.80;;;3.60;86.30;;;;;;5032759;28;20649;-62
2022/11/25 01:56:34;;;;;;;19.58;4.57;;;3.60;86.10;;;;;;5035276;28;20041;-60
2022/11/25 01:59:01;;;;;;;24.02;4.57;;;3.60;86.10;;;;;;5033986;28;20032;-61
2022/11/25 02:01:27;;;;;;;9.93;4.78;;;3.70;86.20;;;;;;5042324;28;20586;-61
2022/11/25 02:03:54;;;;;;;15.73;5.22;;;3.70;86.30;;;;;;5014974;28;20047;-62
2022/11/25 02:06:31;;;;;;;15.25;4.75;;;3.70;87.10;;;;;;5032354;28;20123;-60
2022/11/25 02:09:02;;;;;;;20.40;4.25;;;3.70;86.40;;;;;;5033194;28;20040;-62
2022/11/25 02:11:29;;;;;;;11.98;4.80;;;3.80;86.10;;;;;;5031122;28;20039;-62
2022/11/25 02:13:56;;;;;;;13.48;4.47;;;3.80;86.00;;;;;;5033294;28;20086;-61
2022/11/25 02:16:22;;;;;;;20.05;4.60;;;3.90;86.00;;;;;;5032343;28;20038;-60
2022/11/25 02:18:48;;;;;;;11.75;5.05;;;3.80;85.90;;;;;;5032319;28;20497;-62
2022/11/25 02:21:19;;;;;;;14.98;4.82;;;3.90;85.90;;;;;;5034131;28;20534;-62
2022/11/25 02:24:01;;;;;;;10.70;4.70;;;3.90;86.00;;;;;;5034323;28;20114;-62
2022/11/25 02:26:27;;;;;;;10.55;5.07;;;3.90;86.10;;;;;;5031927;28;20450;-62
2022/11/25 02:28:52;;;;;;;10.82;4.85;;;3.90;85.80;;;;;;5033318;28;22351;-63
2022/11/25 02:31:20;;;;;;;16.67;4.38;;;4.00;86.00;;;;;;5029157;28;20045;-60
2022/11/25 02:33:46;;;;;;;16.42;5.40;;;4.00;86.00;;;;;;5031317;28;20037;-61
2022/11/25 02:36:15;;;;;;;12.73;4.97;;;4.00;85.80;;;;;;5031385;28;20037;-60
2022/11/25 02:38:52;;;;;;;11.68;5.35;;;4.00;85.80;;;;;;5029122;28;20086;-60
2022/11/25 02:41:31;;;;;;;12.57;4.60;;;4.00;85.50;;;;;;5030955;28;20689;-62
2022/11/25 02:43:57;;;;;;;14.23;5.07;;;4.00;85.40;;;;;;5029813;28;20056;-61
2022/11/25 02:46:24;;;;;;;17.20;5.55;;;4.00;85.30;;;;;;5030544;28;20037;-61
2022/11/25 02:48:52;;;;;;;17.85;5.00;;;4.00;85.20;;;;;;5029934;28;20033;-62
2022/11/25 02:51:20;;;;;;;9.45;4.90;;;4.00;85.20;;;;;;5033579;28;20451;-60
2022/11/25 02:53:45;;;;;;;7.20;3.88;;;4.00;85.40;;;;;;5034682;28;20036;-60
2022/11/25 02:56:13;;;;;;;12.40;4.90;;;4.00;85.30;;;;;;5034879;28;20040;-62
2022/11/25 02:58:39;;;;;;;9.05;4.60;;;4.00;85.30;;;;;;5034613;28;20033;-62
2022/11/25 03:01:05;;;;;;;9.23;4.63;;;4.00;85.30;;;;;;5035767;28;20512;-60
2022/11/25 03:03:31;;;;;;;15.70;5.35;;;4.00;85.20;;;;;;5033555;28;20060;-60
2022/11/25 03:05:56;;;;;;;13.80;5.25;;;4.00;85.10;;;;;;5032108;28;20033;-60
2022/11/25 03:08:22;;;;;;;8.32;4.72;;;4.00;84.90;;;;;;5031971;28;20025;-61
2022/11/25 03:10:48;;;;;;;37.78;5.18;;;4.00;84.90;;;;;;5032557;28;20045;-61
2022/11/25 03:13:13;;;;;;;50.65;5.43;;;4.00;85.00;;;;;;5029507;28;20545;-61
2022/11/25 03:15:39;;;;;;;16.48;4.63;;;4.00;84.90;;;;;;5028084;28;20041;-60
2022/11/25 03:18:05;;;;;;;11.57;4.22;;;4.00;84.80;;;;;;5030628;28;20044;-61
2022/11/25 03:20:31;;;;;;;18.13;4.53;;;4.00;84.80;;;;;;5035305;28;20041;-62
2022/11/25 03:22:57;;;;;;;8.25;4.40;;;4.00;84.60;;;;;;5032508;28;20056;-62
2022/11/25 03:25:22;;;;;;;17.25;4.43;;;4.00;84.30;;;;;;5028789;28;20128;-61
2022/11/25 03:27:48;;;;;;;10.55;4.80;;;3.90;84.40;;;;;;5034757;28;20612;-60
2022/11/25 03:30:17;;;;;;;6.80;4.40;;;3.90;84.10;;;;;;5034516;28;20195;-61
2022/11/25 03:32:43;;;;;;;6.10;4.55;;;3.90;84.20;;;;;;5040646;28;20079;-58
2022/11/25 03:35:09;;;;;;;5.13;3.95;;;3.90;84.40;;;;;;5040882;28;20033;-61
2022/11/25 03:37:35;;;;;;;10.80;4.70;;;3.90;84.50;;;;;;5041448;28;20392;-61
2022/11/25 03:40:02;;;;;;;10.05;4.82;;;3.80;84.50;;;;;;5041385;28;20524;-60
2022/11/25 03:42:28;;;;;;;6.50;4.35;;;3.80;84.30;;;;;;5041550;28;20087;-62
2022/11/25 03:44:53;;;;;;;7.18;4.47;;;3.80;84.40;;;;;;5040837;28;20037;-61
2022/11/25 03:47:19;;;;;;;6.10;4.10;;;3.90;84.60;;;;;;5040361;28;20035;-61
2022/11/25 03:49:44;;;;;;;7.68;4.38;;;3.80;84.60;;;;;;5040052;28;20081;-62
2022/11/25 03:52:10;;;;;;;7.80;4.70;;;3.90;84.70;;;;;;5038466;28;20039;-61
2022/11/25 03:54:35;;;;;;;7.38;4.53;;;3.80;84.60;;;;;;5037944;28;20034;-62
2022/11/25 03:57:01;;;;;;;6.43;4.18;;;3.80;84.40;;;;;;5038123;28;20495;-61
2022/11/25 03:59:26;;;;;;;5.65;4.70;;;3.80;84.50;;;;;;5037273;28;20029;-61
2022/11/25 04:01:52;;;;;;;5.57;4.35;;;3.80;84.50;;;;;;5038671;28;20036;-62
2022/11/25 04:04:17;;;;;;;5.05;4.40;;;3.80;84.40;;;;;;5037035;28;20052;-62
2022/11/25 04:06:43;;;;;;;7.95;5.45;;;3.80;84.40;;;;;;5035950;28;20041;-62
2022/11/25 04:09:10;;;;;;;8.05;5.72;;;3.80;84.40;;;;;;5037227;28;20061;-62
2022/11/25 04:14:21;;;;;;;28.35;12.68;;;3.80;84.50;;;;;;5034679;28;20048;-61
2022/11/25 04:16:46;;;;;;;15.38;9.20;;;3.80;84.50;;;;;;5033463;28;20036;-61
2022/11/25 04:19:12;;;;;;;9.35;6.13;;;3.80;84.60;;;;;;5035907;28;20854;-62
2022/11/25 04:21:37;;;;;;;7.32;4.93;;;3.80;84.50;;;;;;5032706;28;20080;-62
2022/11/25 04:24:03;;;;;;;7.05;4.63;;;3.80;84.40;;;;;;5036465;28;20404;-62
2022/11/25 04:26:29;;;;;;;6.60;5.05;;;3.70;84.40;;;;;;5033073;28;20163;-62
2022/11/25 04:28:54;;;;;;;6.53;4.35;;;3.70;84.60;;;;;;5038855;28;20049;-62
2022/11/25 04:31:20;;;;;;;6.07;4.68;;;3.70;84.90;;;;;;5031932;28;20064;-60
2022/11/25 04:33:46;;;;;;;7.47;5.45;;;3.60;85.10;;;;;;5033785;28;20124;-62
2022/11/25 04:36:11;;;;;;;6.97;4.80;;;3.70;85.30;;;;;;5034007;28;20614;-61
2022/11/25 04:38:37;;;;;;;5.50;4.63;;;3.70;85.40;;;;;;5031966;28;20044;-61
2022/11/25 04:41:02;;;;;;;6.70;4.70;;;3.70;85.40;;;;;;5034244;28;20811;-63
2022/11/25 04:43:28;;;;;;;6.93;4.80;;;3.70;85.40;;;;;;5032603;28;20050;-60
2022/11/25 04:45:54;;;;;;;6.75;4.72;;;3.70;85.40;;;;;;5031952;28;20040;-62
2022/11/25 04:48:19;;;;;;;5.57;4.03;;;3.70;85.40;;;;;;5033788;28;20123;-62
2022/11/25 04:50:45;;;;;;;5.70;4.45;;;3.80;85.40;;;;;;5031418;28;20041;-62
2022/11/25 04:53:11;;;;;;;7.85;4.38;;;3.80;85.40;;;;;;5036532;28;20332;-62
2022/11/25 04:55:36;;;;;;;6.68;4.65;;;3.80;85.40;;;;;;5038706;28;20033;-62
2022/11/25 04:58:02;;;;;;;6.28;4.60;;;3.80;85.10;;;;;;5037816;28;20462;-61
2022/11/25 05:00:28;;;;;;;5.75;4.63;;;3.80;85.00;;;;;;5036241;28;20037;-62
2022/11/25 05:02:53;;;;;;;8.35;5.00;;;3.80;85.00;;;;;;5034931;28;20417;-62
2022/11/25 05:05:19;;;;;;;8.95;5.38;;;3.70;86.00;;;;;;5031011;28;20045;-62
2022/11/25 05:07:45;;;;;;;11.15;5.95;;;3.70;85.30;;;;;;5032053;28;20071;-62
2022/11/25 05:10:10;;;;;;;8.88;6.10;;;3.60;85.40;;;;;;5034287;28;20033;-61
2022/11/25 05:12:36;;;;;;;8.82;6.18;;;3.60;85.70;;;;;;5030330;28;20513;-62
2022/11/25 05:15:04;;;;;;;10.25;6.55;;;3.60;86.00;;;;;;5030067;28;20079;-61
2022/11/25 05:17:31;;;;;;;11.05;6.38;;;3.60;86.10;;;;;;5031118;28;20034;-62
2022/11/25 05:19:57;;;;;;;10.43;6.53;;;3.60;86.10;;;;;;5031693;28;20033;-62
2022/11/25 05:22:28;;;;;;;10.55;6.15;;;3.70;86.30;;;;;;5033831;28;20405;-62
2022/11/25 05:24:54;;;;;;;10.05;6.78;;;3.70;86.30;;;;;;5031018;28;20033;-61
2022/11/25 05:27:20;;;;;;;13.20;7.85;;;3.70;86.30;;;;;;5033703;28;20099;-62
2022/11/25 05:29:46;;;;;;;11.80;7.13;;;3.70;86.40;;;;;;5028165;28;20030;-60
2022/11/25 05:32:13;;;;;;;14.18;7.28;;;3.80;86.40;;;;;;5027094;28;20103;-62
2022/11/25 05:34:39;;;;;;;10.80;6.60;;;3.80;86.50;;;;;;5025848;28;20043;-61
2022/11/25 05:37:05;;;;;;;7.82;5.65;;;3.80;86.40;;;;;;5028672;28;20029;-61
2022/11/25 05:39:30;;;;;;;9.90;5.95;;;3.80;87.20;;;;;;5028359;28;20042;-61
2022/11/25 05:41:58;;;;;;;11.38;6.38;;;3.90;86.40;;;;;;5034087;28;20048;-62
2022/11/25 05:44:24;;;;;;;9.70;6.40;;;3.90;86.30;;;;;;5033253;28;20033;-62
2022/11/25 05:46:49;;;;;;;26.63;11.95;;;3.90;86.00;;;;;;5034945;28;20036;-61
2022/11/25 05:49:16;;;;;;;23.55;11.07;;;3.90;85.80;;;;;;5033049;28;20045;-61
2022/11/25 05:51:41;;;;;;;18.65;10.23;;;3.90;85.90;;;;;;5034796;28;20045;-62
2022/11/25 05:54:07;;;;;;;11.23;6.82;;;3.90;86.10;;;;;;5033644;28;20163;-61
2022/11/25 05:56:33;;;;;;;8.18;5.95;;;3.90;86.10;;;;;;5033574;28;20500;-61
2022/11/25 05:58:59;;;;;;;6.32;5.28;;;3.90;86.00;;;;;;5035381;28;20039;-62
2022/11/25 06:01:24;;;;;;;7.93;5.60;;;3.90;85.90;;;;;;5033744;28;20128;-61
2022/11/25 06:03:50;;;;;;;7.82;5.30;;;3.90;85.90;;;;;;5033225;28;20037;-62
2022/11/25 06:06:16;;;;;;;7.97;5.55;;;3.90;86.10;;;;;;5033975;28;20073;-62
2022/11/25 06:08:42;;;;;;;9.30;6.15;;;3.90;86.00;;;;;;5034110;28;20525;-62
2022/11/25 06:11:10;;;;;;;12.02;7.57;;;3.90;86.00;;;;;;5034784;28;20045;-63
2022/11/25 06:13:37;;;;;;;12.95;8.10;;;3.90;86.10;;;;;;5034530;28;20037;-62
2022/11/25 06:16:21;;;;;;;11.55;7.30;;;3.90;86.10;;;;;;5034210;28;20049;-62
2022/11/25 06:18:47;;;;;;;11.95;7.55;;;3.90;86.50;;;;;;5034167;28;20512;-61
2022/11/25 06:21:14;;;;;;;17.98;11.13;;;3.90;86.10;;;;;;5033407;28;20045;-61
2022/11/25 06:23:39;;;;;;;12.18;8.90;;;3.90;86.10;;;;;;5032021;28;20037;-62
2022/11/25 06:26:11;;;;;;;12.57;7.70;;;3.90;86.20;;;;;;5035279;28;20045;-61
2022/11/25 06:28:37;;;;;;;9.57;6.90;;;3.90;86.30;;;;;;5034789;28;20300;-62
2022/11/25 06:31:05;;;;;;;7.97;5.55;;;3.90;86.30;;;;;;5032610;28;20044;-60
2022/11/25 06:33:31;;;;;;;7.63;5.95;;;4.00;86.50;;;;;;5033285;28;20041;-60
2022/11/25 06:35:56;;;;;;;8.80;6.35;;;4.00;86.50;;;;;;5033583;28;20094;-60
2022/11/25 06:38:22;;;;;;;8.88;6.25;;;4.00;86.40;;;;;;5033823;28;20044;-62
2022/11/25 06:40:47;;;;;;;10.10;6.72;;;4.00;86.50;;;;;;5032653;28;20037;-60
2022/11/25 06:43:13;;;;;;;10.48;6.43;;;4.00;86.40;;;;;;5033833;28;20135;-58
2022/11/25 06:45:38;;;;;;;11.13;7.30;;;4.00;86.30;;;;;;5034407;28;20109;-61
2022/11/25 06:48:04;;;;;;;11.68;7.00;;;4.10;86.40;;;;;;5035325;28;20508;-62
2022/11/25 06:50:30;;;;;;;9.23;6.80;;;4.10;86.40;;;;;;5031649;28;20044;-63
2022/11/25 06:52:55;;;;;;;8.23;6.32;;;4.10;86.50;;;;;;5035829;28;20057;-61
2022/11/25 06:55:21;;;;;;;8.55;6.53;;;4.10;86.40;;;;;;5017577;28;20025;-60
2022/11/25 06:57:46;;;;;;;8.77;6.53;;;4.20;86.40;;;;;;5033162;28;20374;-62
2022/11/25 07:00:13;;;;;;;8.50;6.53;;;4.20;86.40;;;;;;5033492;28;20084;-60
2022/11/25 07:02:38;;;;;;;8.15;6.00;;;4.30;86.30;;;;;;5036991;28;20040;-62
2022/11/25 07:05:04;;;;;;;8.50;6.60;;;4.30;86.20;;;;;;5038413;28;20034;-62
2022/11/25 07:07:29;;;;;;;9.18;6.70;;;4.30;86.10;;;;;;5036485;28;20044;-63
2022/11/25 07:09:55;;;;;;;11.60;8.27;;;4.30;86.00;;;;;;5038480;28;20037;-62
2022/11/25 07:12:20;;;;;;;12.15;8.80;;;4.40;85.90;;;;;;5038177;28;20483;-63
2022/11/25 07:14:50;;;;;;;14.32;9.63;;;4.30;85.70;;;;;;5036633;28;20047;-61
2022/11/25 07:17:16;;;;;;;10.23;8.15;;;4.30;85.60;;;;;;5037195;28;20167;-62
2022/11/25 07:19:41;;;;;;;9.98;7.25;;;4.30;85.50;;;;;;5036550;28;20683;-64
2022/11/25 07:22:07;;;;;;;10.07;7.03;;;4.20;85.30;;;;;;5037460;28;20037;-63
2022/11/25 07:24:32;;;;;;;8.95;6.93;;;4.20;85.50;;;;;;5037392;28;20041;-61
2022/11/25 07:26:58;;;;;;;10.45;7.03;;;4.10;85.80;;;;;;5036060;28;20087;-62
2022/11/25 07:29:23;;;;;;;15.73;8.90;;;4.10;85.90;;;;;;5036617;28;20044;-62
2022/11/25 07:31:49;;;;;;;12.85;9.02;;;4.10;86.10;;;;;;5036163;28;20519;-63
2022/11/25 07:34:20;;;;;;;11.90;7.90;;;4.00;86.10;;;;;;5036430;28;20127;-62
2022/11/25 07:36:47;;;;;;;10.80;7.63;;;4.00;86.40;;;;;;5038519;28;20526;-61
2022/11/25 07:39:16;;;;;;;14.57;12.55;;;4.00;86.50;;;;;;5035133;28;20773;-61
2022/11/25 07:41:42;;;;;;;11.10;7.57;;;4.00;86.70;;;;;;5036287;28;20033;-63
2022/11/25 07:44:11;;;;;;;12.65;7.32;;;4.00;86.70;;;;;;5033045;28;20045;-63
2022/11/25 07:46:40;;;;;;;9.18;6.47;;;4.00;86.80;;;;;;5032827;28;20029;-61
2022/11/25 07:49:10;;;;;;;7.28;6.03;;;4.00;87.00;;;;;;5035955;28;20128;-62
2022/11/25 07:51:46;;;;;;;8.40;5.68;;;4.00;87.30;;;;;;5036790;28;20365;-62
2022/11/25 07:54:12;;;;;;;9.10;5.55;;;4.00;87.40;;;;;;5034906;28;20041;-62
2022/11/25 07:56:39;;;;;;;7.47;5.47;;;4.00;88.30;;;;;;5034245;28;20037;-62
2022/11/25 07:59:06;;;;;;;8.85;5.97;;;4.10;87.50;;;;;;5034903;28;20491;-63
2022/11/25 08:01:32;;;;;;;7.25;5.47;;;4.10;87.50;;;;;;5035193;28;20413;-63
2022/11/25 08:03:57;;;;;;;10.90;6.57;;;4.20;87.50;;;;;;5035158;28;20045;-63
2022/11/25 08:06:26;;;;;;;10.30;5.90;;;4.30;87.60;;;;;;5034721;28;20065;-63
2022/11/25 08:08:54;;;;;;;9.60;5.85;;;4.30;87.60;;;;;;5034190;28;20108;-62
2022/11/25 08:11:26;;;;;;;34.25;16.67;;;4.30;87.40;;;;;;5035539;28;20167;-62
2022/11/25 08:13:52;;;;;;;21.50;9.57;;;4.40;87.70;;;;;;5033655;28;20060;-63
2022/11/25 08:16:19;;;;;;;15.15;8.30;;;4.50;87.70;;;;;;5034948;28;20171;-63
2022/11/25 08:18:45;;;;;;;20.52;10.85;;;4.50;87.70;;;;;;5033965;28;20045;-63
2022/11/25 08:21:13;;;;;;;29.50;20.23;;;4.50;87.80;;;;;;5035389;28;20066;-63
2022/11/25 08:23:42;;;;;;;20.52;12.85;;;4.60;87.90;;;;;;5034032;28;20052;-63
2022/11/25 08:26:11;;;;;;;13.25;7.55;;;4.60;88.00;;;;;;4995798;28;1103695;-63
2022/11/25 08:28:37;;;;;;;10.38;6.85;;;4.70;88.10;;;;;;5032408;28;20816;-63
2022/11/25 08:31:05;;;;;;;9.80;6.15;;;4.80;88.20;;;;;;5036988;28;20045;-63
2022/11/25 08:33:32;;;;;;;39.08;20.67;;;4.80;88.30;;;;;;5035163;28;20029;-62
2022/11/25 08:35:57;;;;;;;20.45;11.38;;;4.90;88.40;;;;;;5031349;28;20037;-63
2022/11/25 08:38:23;;;;;;;18.70;8.13;;;4.90;88.40;;;;;;5035015;28;20389;-63
2022/11/25 08:40:49;;;;;;;17.92;11.00;;;5.00;88.60;;;;;;5033566;28;20033;-62
2022/11/25 08:43:15;;;;;;;17.05;11.25;;;5.10;88.70;;;;;;5034987;28;20743;-64
2022/11/25 08:45:41;;;;;;;13.35;8.48;;;5.20;88.70;;;;;;5035128;28;20032;-63
2022/11/25 08:48:06;;;;;;;14.13;7.80;;;5.30;88.70;;;;;;5028699;28;20026;-63
2022/11/25 08:50:32;;;;;;;11.05;6.55;;;5.30;88.70;;;;;;5032841;28;20116;-63
2022/11/25 08:52:59;;;;;;;36.60;12.25;;;5.40;88.70;;;;;;5030300;28;20041;-64
2022/11/25 08:55:26;;;;;;;30.60;11.50;;;5.40;88.70;;;;;;5033045;28;20128;-64
2022/11/25 08:57:53;;;;;;;25.27;9.63;;;5.60;88.80;;;;;;5032214;28;20049;-63
2022/11/25 09:00:19;;;;;;;25.90;9.13;;;5.60;88.80;;;;;;5031994;28;20095;-64
2022/11/25 09:02:45;;;;;;;20.77;7.90;;;5.70;88.80;;;;;;5028955;28;20041;-64
2022/11/25 09:05:13;;;;;;;17.25;7.72;;;5.70;88.80;;;;;;5034351;28;20052;-63
2022/11/25 09:07:39;;;;;;;18.50;8.30;;;5.80;88.90;;;;;;5035514;28;20080;-63
2022/11/25 09:10:06;;;;;;;19.85;9.23;;;5.90;88.90;;;;;;5032207;28;20037;-64
2022/11/25 09:12:32;;;;;;;18.63;9.23;;;6.00;88.90;;;;;;5031495;28;20029;-63
2022/11/25 09:14:58;;;;;;;22.42;10.50;;;6.00;88.90;;;;;;5032989;28;20555;-62
2022/11/25 09:17:23;;;;;;;18.95;9.43;;;6.10;89.00;;;;;;5033291;28;20048;-61
2022/11/25 09:19:49;;;;;;;13.80;8.35;;;6.10;88.80;;;;;;5033567;28;20021;-63
2022/11/25 09:22:14;;;;;;;14.88;7.65;;;6.20;89.00;;;;;;5034632;28;21922;-61
2022/11/25 09:24:42;;;;;;;17.33;8.38;;;6.30;89.10;;;;;;5034189;28;20354;-63
2022/11/25 09:27:08;;;;;;;19.92;8.85;;;6.40;89.20;;;;;;5035752;28;20057;-63
2022/11/25 09:29:33;;;;;;;11.13;6.18;;;6.50;89.10;;;;;;5032733;28;20041;-63
2022/11/25 09:31:59;;;;;;;11.75;6.05;;;6.50;89.10;;;;;;5033418;28;20048;-63
2022/11/25 09:34:24;;;;;;;13.02;7.03;;;6.60;88.90;;;;;;5035047;28;20033;-63
2022/11/25 09:36:50;;;;;;;9.68;4.28;;;6.60;88.90;;;;;;5031837;28;20571;-63
2022/11/25 09:39:16;;;;;;;8.77;5.22;;;6.70;88.90;;;;;;5034210;28;20079;-63
2022/11/25 09:48:32;;;;;;;12.85;6.20;;;6.90;88.70;;;;;;5031785;28;20094;-63
2022/11/25 09:51:33;;;;;;;14.15;5.28;;;7.00;88.60;;;;;;5014286;28;20033;-65
2022/11/25 09:54:20;;;;;;;15.73;5.80;;;7.10;88.80;;;;;;5035780;28;20227;-63
2022/11/25 09:57:21;;;;;;;9.75;4.25;;;7.20;88.60;;;;;;5032876;28;20041;-63
2022/11/25 10:00:00;;;;;;;11.23;4.13;;;7.30;88.50;;;;;;5033542;28;20100;-63
2022/11/25 10:02:36;;;;;;;7.97;3.83;;;7.40;88.30;;;;;;5030817;28;20026;-61
2022/11/25 10:05:07;;;;;;;15.60;6.78;;;7.50;88.10;;;;;;5032385;28;20038;-62
2022/11/25 10:07:38;;;;;;;12.75;4.60;;;7.50;88.00;;;;;;5034735;28;20065;-62
2022/11/25 10:10:12;;;;;;;8.80;5.45;;;7.60;87.90;;;;;;5034024;28;20148;-62
2022/11/25 10:12:42;;;;;;;9.17;4.90;;;7.70;88.00;;;;;;5033044;28;20504;-63
2022/11/25 10:15:18;;;;;;;7.63;4.20;;;7.80;88.10;;;;;;5034646;28;20037;-63
2022/11/25 10:17:50;;;;;;;4.05;3.50;;;7.90;87.90;;;;;;5032216;28;20033;-63
2022/11/25 10:20:40;;;;;;;9.75;3.67;;;7.90;87.70;;;;;;5035422;28;20034;-62
2022/11/25 10:23:18;;;;;;;17.30;8.52;;;8.00;87.60;;;;;;5037431;28;20064;-62
2022/11/25 10:25:45;;;;;;;11.82;5.63;;;8.10;87.50;;;;;;5035522;28;20049;-63
2022/11/25 10:28:19;;;;;;;7.10;4.05;;;8.10;87.30;;;;;;5035393;28;20047;-63
2022/11/25 10:30:49;;;;;;;4.77;2.87;;;8.20;87.30;;;;;;5035634;28;20032;-63
2022/11/25 10:33:26;;;;;;;6.88;2.95;;;8.30;87.00;;;;;;5036421;28;20284;-64
2022/11/25 10:35:55;;;;;;;5.35;3.13;;;8.30;86.90;;;;;;5031979;28;20033;-62
2022/11/25 10:38:30;;;;;;;7.68;3.50;;;8.40;86.90;;;;;;5032684;28;20436;-63
2022/11/25 10:40:57;;;;;;;5.45;2.50;;;8.50;86.50;;;;;;5033169;28;20172;-63
2022/11/25 10:43:22;;;;;;;5.20;2.38;;;8.50;86.40;;;;;;5034150;28;20047;-63
2022/11/25 10:46:15;;;;;;;6.72;2.50;;;8.60;86.20;;;;;;5030425;28;20030;-63
2022/11/25 10:48:46;;;;;;;6.80;3.03;;;8.60;86.10;;;;;;5034196;28;20065;-64
2022/11/25 10:51:34;;;;;;;7.47;3.33;;;8.70;86.10;;;;;;5034955;28;20036;-64
2022/11/25 10:54:14;;;;;;;9.52;3.92;;;8.70;86.00;;;;;;5033946;28;20518;-63
2022/11/25 10:56:49;;;;;;;6.28;3.38;;;8.80;86.00;;;;;;5033586;28;20029;-63
2022/11/25 10:59:23;;;;;;;4.65;2.85;;;8.90;86.90;;;;;;5032644;28;20033;-63
2022/11/25 11:01:51;;;;;;;5.97;2.55;;;8.90;86.00;;;;;;5035229;28;20029;-63
2022/11/25 11:04:18;;;;;;;7.07;2.85;;;9.00;85.90;;;;;;5035645;28;20045;-62
2022/11/25 11:06:46;;;;;;;7.68;2.80;;;9.00;85.90;;;;;;5035842;28;20025;-62
2022/11/25 11:09:35;;;;;;;8.73;3.65;;;9.10;85.90;;;;;;5034446;28;20044;-62
2022/11/25 11:12:19;;;;;;;6.80;3.15;;;9.20;85.50;;;;;;5029095;28;20441;-63
2022/11/25 11:14:44;;;;;;;4.60;2.80;;;9.30;85.70;;;;;;5033412;28;20041;-63
2022/11/25 11:17:28;;;;;;;4.07;2.08;;;9.40;85.70;;;;;;5032871;28;20067;-63
2022/11/25 11:20:22;;;;;;;3.88;2.88;;;9.40;85.00;;;;;;5034861;28;20111;-61
2022/11/25 11:23:10;;;;;;;6.57;2.60;;;9.50;84.50;;;;;;5035465;28;20132;-62
2022/11/25 11:25:38;;;;;;;7.38;2.00;;;9.60;84.20;;;;;;5033014;28;20029;-63
2022/11/25 11:28:35;;;;;;;5.28;1.95;;;9.60;85.30;;;;;;5035292;28;20053;-63
2022/11/25 11:31:06;;;;;;;3.55;1.80;;;9.70;83.60;;;;;;5035306;28;20034;-62
2022/11/25 11:34:18;;;;;;;6.18;2.13;;;9.70;84.10;;;;;;5034305;28;20037;-63
2022/11/25 11:37:09;;;;;;;7.80;3.80;;;9.80;83.40;;;;;;5006403;28;20044;-62
2022/11/25 11:40:00;;;;;;;9.15;3.33;;;9.80;83.80;;;;;;5002569;28;20037;-63
2022/11/25 11:42:38;;;;;;;8.10;4.07;;;9.80;83.10;;;;;;5034065;28;20037;-63
2022/11/25 11:45:35;;;;;;;7.78;2.50;;;9.90;83.30;;;;;;5034994;28;20041;-62
2022/11/25 11:48:14;;;;;;;7.05;3.20;;;9.90;82.90;;;;;;5035929;28;20040;-63
2022/11/25 11:51:03;;;;;;;5.20;2.63;;;10.00;83.10;;;;;;5036078;28;20029;-62
2022/11/25 11:53:51;;;;;;;3.38;2.45;;;10.00;83.00;;;;;;5037310;28;20552;-63
2022/11/25 11:56:38;;;;;;;4.18;2.35;;;10.10;83.10;;;;;;5036342;28;20033;-63
2022/11/25 11:59:45;;;;;;;10.20;3.00;;;10.10;82.80;;;;;;5036501;28;20120;-62
2022/11/25 12:02:18;;;;;;;8.13;5.07;;;10.10;82.70;;;;;;5035523;28;20034;-61
2022/11/25 12:05:03;;;;;;;9.82;3.42;;;10.20;83.00;;;;;;5035391;28;20069;-63
2022/11/25 12:07:47;;;;;;;6.55;4.20;;;10.20;82.70;;;;;;5037522;28;20037;-63
2022/11/25 12:10:21;;;;;;;9.35;3.65;;;10.30;82.60;;;;;;5037697;28;20508;-62
2022/11/25 12:12:59;;;;;;;7.40;3.28;;;10.40;82.70;;;;;;5032243;28;20041;-62
2022/11/25 12:15:30;;;;;;;5.45;2.80;;;10.40;82.70;;;;;;5035462;28;20428;-61
2022/11/25 12:18:08;;;;;;;8.27;2.55;;;10.40;82.60;;;;;;5035020;28;20056;-63
2022/11/25 12:20:43;;;;;;;8.00;2.20;;;10.50;82.60;;;;;;5034800;28;20040;-62
2022/11/25 12:23:19;;;;;;;4.78;1.90;;;10.50;82.40;;;;;;5035477;28;20079;-63
2022/11/25 12:25:48;;;;;;;4.03;1.52;;;10.60;82.00;;;;;;5032783;28;20456;-62
2022/11/25 12:28:29;;;;;;;4.90;1.65;;;10.60;81.90;;;;;;5034385;28;20047;-62
2022/11/25 12:31:09;;;;;;;5.63;1.90;;;10.60;81.90;;;;;;5034841;28;20030;-63
2022/11/25 12:34:08;;;;;;;3.67;1.50;;;10.70;81.00;;;;;;5034908;28;20037;-62
2022/11/25 12:36:39;;;;;;;43.78;18.85;;;10.70;80.70;;;;;;5033250;28;20353;-62
2022/11/25 12:39:27;;;;;;;26.38;11.18;;;10.70;80.80;;;;;;5034429;28;20078;-63
2022/11/25 12:41:58;;;;;;;11.27;4.90;;;10.70;80.60;;;;;;5035667;28;20036;-63
2022/11/25 12:44:28;;;;;;;7.18;4.38;;;10.70;80.60;;;;;;5033238;28;20049;-63
2022/11/25 12:46:55;;;;;;;7.60;3.17;;;10.70;80.60;;;;;;5033935;28;20037;-62
2022/11/25 12:49:31;;;;;;;5.45;1.95;;;10.70;80.50;;;;;;5035696;28;20060;-62
2022/11/25 12:52:05;;;;;;;5.05;2.88;;;10.70;80.40;;;;;;5033595;28;20033;-63
2022/11/25 12:54:49;;;;;;;5.47;3.25;;;10.70;79.90;;;;;;5034151;28;20421;-62
2022/11/25 12:57:26;;;;;;;6.78;3.70;;;10.80;79.50;;;;;;5032887;28;20504;-62
2022/11/25 13:00:03;;;;;;;7.95;2.80;;;10.80;79.80;;;;;;5034513;28;20582;-63
2022/11/25 13:02:50;;;;;;;7.15;3.45;;;10.80;80.00;;;;;;5034974;28;20428;-61
2022/11/25 13:05:34;;;;;;;6.07;2.80;;;10.80;79.90;;;;;;5030267;28;20136;-62
2022/11/25 13:08:21;;;;;;;6.75;2.20;;;10.80;79.60;;;;;;5034226;28;20158;-63
2022/11/25 13:10:56;;;;;;;6.53;2.50;;;10.80;79.60;;;;;;5034447;28;20052;-63
2022/11/25 13:13:45;;;;;;;8.73;3.10;;;10.80;79.70;;;;;;5034787;28;20486;-63
2022/11/25 13:16:11;;;;;;;5.60;3.47;;;10.80;80.00;;;;;;5035839;28;20030;-63